Time;durP1;ratioP1;P1;durP2;ratioP2;P2;SDS_P1;SDS_P2;PMS_P1;PMS_P2;Temp;Humidity;BMP_temperature;BMP_pressure;BME280_temperature;BME280_humidity;BME280_pressure;Samples;Min_cycle;Max_cycle;Signal;HPM_P1;HPM_P2
2022/09/21 00:01:21;;;;;;;1.27;0.80;;;14.70;99.90;;;;;;6111402;23;20033;-75
2022/09/21 00:03:52;;;;;;;1.15;0.68;;;14.70;99.90;;;;;;6112016;23;20026;-74
2022/09/21 00:06:20;;;;;;;1.05;0.70;;;14.60;99.90;;;;;;6062344;23;20084;-74
2022/09/21 00:08:47;;;;;;;0.95;0.70;;;14.60;99.90;;;;;;6086551;23;20022;-74
2022/09/21 00:11:25;;;;;;;1.10;0.77;;;14.60;99.90;;;;;;6063265;23;20028;-74
2022/09/21 00:13:53;;;;;;;1.55;0.80;;;14.60;99.90;;;;;;6112691;23;20018;-74
2022/09/21 00:16:21;;;;;;;0.93;0.68;;;14.50;99.90;;;;;;6085855;23;20026;-74
2022/09/21 00:18:47;;;;;;;0.70;0.70;;;14.50;99.90;;;;;;6086953;23;20041;-74
2022/09/21 00:21:14;;;;;;;1.25;0.80;;;14.50;99.90;;;;;;6087902;23;20103;-74
2022/09/21 00:23:41;;;;;;;1.05;0.70;;;14.40;99.90;;;;;;6088748;23;20022;-74
2022/09/21 00:26:12;;;;;;;0.93;0.63;;;14.40;99.90;;;;;;6064640;23;20222;-74
2022/09/21 00:28:39;;;;;;;1.20;0.80;;;14.30;99.90;;;;;;6089196;23;20022;-74
2022/09/21 00:31:10;;;;;;;1.30;0.65;;;14.30;99.90;;;;;;6113688;23;20014;-74
2022/09/21 00:33:38;;;;;;;1.08;0.90;;;14.30;99.90;;;;;;6088695;23;20021;-74
2022/09/21 00:36:09;;;;;;;0.95;0.73;;;14.20;99.90;;;;;;6063796;23;20112;-74
2022/09/21 00:38:35;;;;;;;1.23;0.70;;;14.20;99.90;;;;;;6088893;23;20018;-74
2022/09/21 00:41:03;;;;;;;1.58;0.80;;;14.10;99.90;;;;;;6088692;23;20022;-74
2022/09/21 00:43:34;;;;;;;1.10;0.70;;;14.10;99.90;;;;;;6064446;23;20130;-74
2022/09/21 00:46:05;;;;;;;2.20;1.02;;;14.00;99.90;;;;;;6088655;23;20041;-73
2022/09/21 00:48:32;;;;;;;0.80;0.60;;;14.00;99.90;;;;;;6089165;23;20025;-73
2022/09/21 00:51:03;;;;;;;1.25;0.85;;;14.00;99.90;;;;;;6063501;23;20029;-74
2022/09/21 00:53:30;;;;;;;1.00;0.70;;;14.00;99.90;;;;;;6087343;23;20030;-73
2022/09/21 00:55:57;;;;;;;1.08;0.70;;;13.90;99.90;;;;;;6068559;23;20026;-73
2022/09/21 00:58:30;;;;;;;1.10;0.80;;;13.90;99.90;;;;;;6092668;23;20030;-74
2022/09/21 01:00:57;;;;;;;1.20;0.75;;;13.90;99.90;;;;;;6092408;23;20033;-73
2022/09/21 01:03:24;;;;;;;0.98;0.80;;;13.80;99.90;;;;;;6081928;23;20463;-74
2022/09/21 01:05:51;;;;;;;1.15;0.90;;;13.80;99.90;;;;;;6058807;23;20085;-74
2022/09/21 01:08:18;;;;;;;1.85;0.90;;;13.80;99.90;;;;;;6061807;23;20457;-74
2022/09/21 01:11:13;;;;;;;1.00;0.75;;;13.80;99.90;;;;;;6087767;23;20398;-74
2022/09/21 01:14:05;;;;;;;1.35;0.88;;;13.70;99.90;;;;;;6089277;23;20040;-74
2022/09/21 01:17:15;;;;;;;1.63;0.90;;;13.70;99.90;;;;;;6086573;23;20414;-74
2022/09/21 01:19:52;;;;;;;1.00;0.77;;;13.70;99.90;;;;;;6054825;23;20335;-74
2022/09/21 01:22:24;;;;;;;1.35;0.82;;;13.70;99.90;;;;;;6088093;23;20026;-74
2022/09/21 01:25:00;;;;;;;0.90;0.80;;;13.60;99.90;;;;;;6089206;23;20018;-74
2022/09/21 01:27:53;;;;;;;0.82;0.60;;;13.60;99.90;;;;;;6087011;23;20471;-74
2022/09/21 01:30:20;;;;;;;1.15;0.70;;;13.50;99.90;;;;;;6089687;23;20023;-74
2022/09/21 01:32:53;;;;;;;0.82;0.70;;;13.50;99.90;;;;;;6063737;23;20018;-75
2022/09/21 01:35:28;;;;;;;2.25;0.93;;;13.50;99.90;;;;;;6086979;23;20073;-74
2022/09/21 01:38:01;;;;;;;2.03;0.73;;;13.40;99.90;;;;;;6061608;23;20030;-74
2022/09/21 01:40:29;;;;;;;1.73;1.23;;;13.40;99.90;;;;;;6089961;23;20378;-74
2022/09/21 01:43:02;;;;;;;1.00;0.60;;;13.40;99.90;;;;;;6089257;23;20027;-75
2022/09/21 01:45:30;;;;;;;0.90;0.70;;;13.40;99.90;;;;;;6088605;23;20023;-74
2022/09/21 01:47:59;;;;;;;1.40;0.85;;;13.40;99.90;;;;;;6087106;23;20314;-74
2022/09/21 01:50:29;;;;;;;1.08;0.77;;;13.40;99.90;;;;;;6086935;23;20480;-74
2022/09/21 01:53:23;;;;;;;1.10;0.70;;;13.40;99.90;;;;;;6062275;23;20105;-74
2022/09/21 01:55:57;;;;;;;1.48;0.82;;;13.40;99.90;;;;;;6087127;23;20097;-74
2022/09/21 01:58:32;;;;;;;1.20;0.70;;;13.50;99.90;;;;;;6063509;23;20030;-74
2022/09/21 02:00:59;;;;;;;1.02;0.60;;;13.50;99.90;;;;;;6087613;23;20458;-74
2022/09/21 02:03:35;;;;;;;1.25;0.75;;;13.50;99.90;;;;;;6086177;23;20467;-74
2022/09/21 02:06:02;;;;;;;1.02;0.68;;;13.50;99.90;;;;;;6086934;23;20097;-74
2022/09/21 02:08:30;;;;;;;1.20;0.63;;;13.50;99.90;;;;;;6087441;23;20033;-73
2022/09/21 02:11:01;;;;;;;1.10;0.60;;;13.50;99.90;;;;;;6087297;23;20026;-74
2022/09/21 02:13:37;;;;;;;0.95;0.50;;;13.50;99.90;;;;;;6087683;23;20098;-73
2022/09/21 02:16:06;;;;;;;0.88;0.57;;;13.50;99.90;;;;;;6087135;23;20026;-74
2022/09/21 02:18:56;;;;;;;0.70;0.50;;;13.50;99.90;;;;;;6088513;23;20026;-74
2022/09/21 02:21:30;;;;;;;0.88;0.77;;;13.50;99.90;;;;;;6086351;23;20030;-74
2022/09/21 02:24:21;;;;;;;1.10;0.70;;;13.50;99.90;;;;;;6087575;23;20022;-73
2022/09/21 02:26:54;;;;;;;1.23;0.88;;;13.50;99.90;;;;;;6087623;23;20022;-74
2022/09/21 02:29:47;;;;;;;1.00;0.65;;;13.60;99.90;;;;;;6063707;23;20018;-74
2022/09/21 02:32:23;;;;;;;1.35;1.00;;;13.60;99.90;;;;;;6062533;23;20018;-74
2022/09/21 02:35:18;;;;;;;1.27;0.75;;;13.60;99.90;;;;;;6088702;23;20026;-73
2022/09/21 02:37:54;;;;;;;1.15;0.70;;;13.60;99.90;;;;;;6089836;23;20283;-73
2022/09/21 02:40:34;;;;;;;1.67;0.90;;;13.60;99.90;;;;;;6064548;23;20052;-73
2022/09/21 02:43:14;;;;;;;0.88;0.60;;;13.60;99.90;;;;;;6086883;23;20137;-73
2022/09/21 02:45:47;;;;;;;1.63;0.80;;;13.70;99.90;;;;;;6087437;23;20026;-73
2022/09/21 02:48:19;;;;;;;1.10;0.80;;;13.70;99.90;;;;;;6086159;23;20034;-74
2022/09/21 02:50:57;;;;;;;1.02;0.82;;;13.60;99.90;;;;;;6086506;23;20034;-73
2022/09/21 02:53:26;;;;;;;1.35;0.90;;;13.60;99.90;;;;;;6086152;23;20037;-73
2022/09/21 02:55:53;;;;;;;1.17;0.70;;;13.70;99.90;;;;;;6086644;23;20026;-74
2022/09/21 02:58:23;;;;;;;0.70;0.60;;;13.70;99.90;;;;;;6063314;23;20018;-74
2022/09/21 03:00:49;;;;;;;1.05;0.82;;;13.70;99.90;;;;;;6063582;23;20030;-74
2022/09/21 03:03:18;;;;;;;1.33;0.98;;;13.70;99.90;;;;;;6085371;23;20097;-74
2022/09/21 03:05:47;;;;;;;1.05;0.68;;;13.70;99.90;;;;;;6086496;23;20022;-74
2022/09/21 03:08:15;;;;;;;1.15;0.82;;;13.70;99.90;;;;;;6062118;23;20029;-74
2022/09/21 03:10:41;;;;;;;1.40;0.98;;;13.70;99.90;;;;;;6087598;23;20064;-74
2022/09/21 03:13:08;;;;;;;0.90;0.70;;;13.70;99.90;;;;;;6086935;23;20053;-74
2022/09/21 03:15:36;;;;;;;1.10;0.70;;;13.60;99.90;;;;;;6087239;23;20125;-74
2022/09/21 03:18:04;;;;;;;1.02;0.70;;;13.70;99.90;;;;;;6086053;23;20053;-74
2022/09/21 03:20:31;;;;;;;0.93;0.70;;;13.60;99.90;;;;;;6086509;23;20027;-74
2022/09/21 03:22:59;;;;;;;1.17;0.80;;;13.60;99.90;;;;;;6086173;23;20034;-74
2022/09/21 03:25:26;;;;;;;1.40;1.10;;;13.60;99.90;;;;;;6086885;23;20121;-74
2022/09/21 03:27:53;;;;;;;1.05;0.93;;;13.60;99.90;;;;;;6086819;23;20049;-74
2022/09/21 03:30:20;;;;;;;1.15;0.95;;;13.60;99.90;;;;;;6063441;23;20098;-74
2022/09/21 03:32:51;;;;;;;0.88;0.70;;;13.60;99.90;;;;;;6061715;23;20603;-73
2022/09/21 03:35:18;;;;;;;0.82;0.60;;;13.60;99.90;;;;;;6086785;23;20335;-74
2022/09/21 03:37:45;;;;;;;1.33;0.80;;;13.60;99.90;;;;;;6061729;23;20023;-74
2022/09/21 03:40:12;;;;;;;1.15;0.77;;;13.60;99.90;;;;;;6087272;23;20030;-74
2022/09/21 03:42:39;;;;;;;1.08;0.88;;;13.60;99.90;;;;;;6086547;23;20026;-74
2022/09/21 03:45:07;;;;;;;1.50;0.90;;;13.60;99.90;;;;;;6063300;23;20034;-74
2022/09/21 03:47:33;;;;;;;1.13;0.77;;;13.70;99.90;;;;;;6085525;23;20025;-74
2022/09/21 03:50:00;;;;;;;1.15;0.70;;;13.60;99.90;;;;;;6086450;23;20026;-74
2022/09/21 03:52:27;;;;;;;0.85;0.70;;;13.70;99.90;;;;;;6085824;23;20882;-74
2022/09/21 03:54:54;;;;;;;0.95;0.70;;;13.70;99.90;;;;;;6087971;23;20029;-74
2022/09/21 03:57:21;;;;;;;0.88;0.65;;;13.70;99.90;;;;;;6088788;23;20018;-74
2022/09/21 03:59:47;;;;;;;1.17;0.88;;;13.70;99.90;;;;;;6088946;23;20026;-74
2022/09/21 04:02:15;;;;;;;1.00;0.80;;;13.70;99.90;;;;;;6063306;23;20023;-73
2022/09/21 04:04:42;;;;;;;0.80;0.50;;;13.70;99.90;;;;;;6088413;23;20057;-74
2022/09/21 04:07:09;;;;;;;0.80;0.60;;;13.70;99.90;;;;;;6063811;23;20026;-74
2022/09/21 04:09:35;;;;;;;1.50;0.90;;;13.70;99.90;;;;;;6090142;23;20034;-74
2022/09/21 04:12:02;;;;;;;1.10;0.80;;;13.70;99.90;;;;;;6088671;23;20519;-74
2022/09/21 04:14:29;;;;;;;0.68;0.55;;;13.70;99.90;;;;;;6088743;23;20341;-73
2022/09/21 04:16:56;;;;;;;1.38;0.93;;;13.70;99.90;;;;;;6087823;23;20026;-74
2022/09/21 04:19:22;;;;;;;1.42;0.85;;;13.70;99.90;;;;;;6089594;23;20023;-74
2022/09/21 04:21:50;;;;;;;1.23;0.93;;;13.70;99.90;;;;;;6087397;23;20098;-73
2022/09/21 04:24:20;;;;;;;0.73;0.55;;;13.70;99.90;;;;;;6088295;23;20040;-73
2022/09/21 04:26:47;;;;;;;0.85;0.50;;;13.70;99.90;;;;;;6088445;23;20018;-73
2022/09/21 04:29:14;;;;;;;1.48;0.88;;;13.80;99.90;;;;;;6088665;23;20023;-76
2022/09/21 04:31:40;;;;;;;0.85;0.70;;;13.80;99.90;;;;;;6063245;23;20038;-74
2022/09/21 04:34:08;;;;;;;1.05;0.75;;;13.80;99.90;;;;;;6064205;23;20141;-74
2022/09/21 04:36:34;;;;;;;0.77;0.60;;;13.70;99.90;;;;;;6087311;23;20105;-73
2022/09/21 04:39:03;;;;;;;0.88;0.60;;;13.70;99.90;;;;;;6088398;23;20045;-74
2022/09/21 04:41:30;;;;;;;0.82;0.40;;;13.70;99.90;;;;;;6064084;23;20022;-73
2022/09/21 04:43:56;;;;;;;1.20;0.80;;;13.70;99.90;;;;;;6089971;23;20056;-73
2022/09/21 04:46:23;;;;;;;0.90;0.60;;;13.60;99.90;;;;;;6063266;23;20033;-74
2022/09/21 04:48:50;;;;;;;0.77;0.77;;;13.70;99.90;;;;;;6085147;23;20053;-74
2022/09/21 04:51:17;;;;;;;2.50;0.77;;;13.60;99.90;;;;;;6086527;23;20026;-74
2022/09/21 04:53:43;;;;;;;1.02;0.70;;;13.70;99.90;;;;;;6085265;23;20041;-74
2022/09/21 04:56:13;;;;;;;0.88;0.65;;;13.70;99.90;;;;;;6086687;23;20076;-74
2022/09/21 04:58:39;;;;;;;0.80;0.70;;;13.70;99.90;;;;;;6085413;23;20022;-74
2022/09/21 05:01:06;;;;;;;1.05;0.70;;;13.70;99.90;;;;;;6061533;23;20037;-74
2022/09/21 05:03:33;;;;;;;0.90;0.70;;;13.70;99.90;;;;;;6082121;23;20023;-74
2022/09/21 05:06:01;;;;;;;0.70;0.63;;;13.60;99.90;;;;;;6080290;23;20264;-74
2022/09/21 05:11:15;;;;;;;1.33;0.85;;;13.70;99.90;;;;;;6086486;23;20392;-74
2022/09/21 05:13:41;;;;;;;2.03;1.00;;;13.70;99.90;;;;;;6085663;23;20026;-74
2022/09/21 05:16:09;;;;;;;1.73;0.88;;;13.70;99.90;;;;;;6085935;23;20092;-74
2022/09/21 05:18:36;;;;;;;1.27;0.95;;;13.70;99.90;;;;;;6083865;23;20121;-74
2022/09/21 05:21:03;;;;;;;0.98;0.70;;;13.70;99.90;;;;;;6083799;23;20102;-74
2022/09/21 05:23:30;;;;;;;1.73;0.90;;;13.70;99.90;;;;;;6081078;23;20408;-74
2022/09/21 05:25:57;;;;;;;0.88;0.70;;;13.70;99.90;;;;;;6083427;23;20032;-74
2022/09/21 05:28:25;;;;;;;1.25;0.93;;;13.70;99.90;;;;;;6087011;23;20048;-74
2022/09/21 05:30:56;;;;;;;1.00;0.70;;;13.70;99.90;;;;;;6085648;23;20048;-73
2022/09/21 05:33:55;;;;;;;1.23;0.90;;;13.70;99.90;;;;;;6066820;23;20477;-74
2022/09/21 05:36:39;;;;;;;1.23;0.75;;;13.80;99.90;;;;;;6083820;23;20066;-74
2022/09/21 05:39:06;;;;;;;0.50;0.50;;;13.70;99.90;;;;;;6082558;23;20022;-74
2022/09/21 05:41:34;;;;;;;1.00;0.68;;;13.80;99.90;;;;;;6082465;23;20033;-74
2022/09/21 05:44:01;;;;;;;1.05;0.70;;;13.70;99.90;;;;;;6082081;23;20027;-74
2022/09/21 05:46:40;;;;;;;1.15;0.90;;;13.70;99.90;;;;;;6081416;23;20116;-79
2022/09/21 05:49:20;;;;;;;0.93;0.60;;;13.80;99.90;;;;;;6086247;23;20032;-73
2022/09/21 05:52:02;;;;;;;1.30;0.80;;;13.80;99.90;;;;;;6084909;23;20088;-72
2022/09/21 05:54:56;;;;;;;0.98;0.75;;;13.80;99.90;;;;;;6086335;23;20073;-72
2022/09/21 05:57:32;;;;;;;0.55;0.40;;;13.80;99.90;;;;;;6084859;23;20022;-72
2022/09/21 06:00:18;;;;;;;1.00;0.80;;;13.80;99.90;;;;;;6086245;23;20046;-73
2022/09/21 06:02:49;;;;;;;1.23;0.73;;;13.80;99.90;;;;;;6061736;23;20042;-72
2022/09/21 06:05:16;;;;;;;0.90;0.80;;;13.90;99.90;;;;;;6084838;23;20033;-72
2022/09/21 06:07:43;;;;;;;0.75;0.63;;;13.90;99.90;;;;;;6059999;23;20037;-72
2022/09/21 06:10:11;;;;;;;0.80;0.70;;;13.90;99.90;;;;;;6061640;23;20029;-73
2022/09/21 06:12:38;;;;;;;0.90;0.73;;;13.90;99.90;;;;;;6085083;23;20026;-73
2022/09/21 06:15:06;;;;;;;0.90;0.70;;;14.00;99.90;;;;;;6080752;23;20033;-73
2022/09/21 06:17:32;;;;;;;1.13;0.80;;;14.00;99.90;;;;;;6078780;23;20027;-73
2022/09/21 06:19:59;;;;;;;1.40;0.82;;;14.00;99.90;;;;;;6079075;23;20026;-73
2022/09/21 06:22:26;;;;;;;0.85;0.60;;;14.10;99.90;;;;;;6075166;23;20506;-73
2022/09/21 06:24:53;;;;;;;1.25;0.70;;;14.10;99.90;;;;;;6078698;23;20061;-73
2022/09/21 06:27:19;;;;;;;1.58;0.73;;;14.10;99.90;;;;;;6075729;23;20029;-73
2022/09/21 06:29:46;;;;;;;1.23;0.80;;;14.20;99.90;;;;;;6077711;23;20070;-73
2022/09/21 06:32:13;;;;;;;1.42;0.80;;;14.20;99.90;;;;;;6075601;23;20026;-73
2022/09/21 06:34:41;;;;;;;1.35;0.65;;;14.20;99.90;;;;;;6077973;23;20347;-73
2022/09/21 06:37:40;;;;;;;0.77;0.55;;;14.30;99.90;;;;;;6074640;23;20465;-73
2022/09/21 06:40:08;;;;;;;1.35;0.95;;;14.30;99.90;;;;;;6077869;23;20022;-73
2022/09/21 06:42:34;;;;;;;0.60;0.50;;;14.30;99.90;;;;;;6078899;23;20026;-73
2022/09/21 06:45:02;;;;;;;1.02;0.80;;;14.30;99.90;;;;;;6078411;23;20026;-73
2022/09/21 06:47:29;;;;;;;0.82;0.70;;;14.40;99.90;;;;;;6076810;23;20042;-74
2022/09/21 06:49:55;;;;;;;1.33;1.00;;;14.40;99.90;;;;;;6079897;23;20278;-74
2022/09/21 06:52:22;;;;;;;1.20;0.75;;;14.50;99.90;;;;;;6076899;23;20309;-74
2022/09/21 06:54:49;;;;;;;1.23;0.77;;;14.50;99.90;;;;;;6080025;23;20026;-73
2022/09/21 06:57:16;;;;;;;0.60;0.50;;;14.60;99.90;;;;;;6077605;23;20046;-73
2022/09/21 06:59:43;;;;;;;0.70;0.60;;;14.60;99.90;;;;;;6078822;23;20029;-73
2022/09/21 07:02:11;;;;;;;1.13;0.80;;;14.70;99.90;;;;;;6077174;23;20022;-73
2022/09/21 07:04:38;;;;;;;1.33;1.05;;;14.70;99.90;;;;;;6077056;23;20030;-73
2022/09/21 07:07:05;;;;;;;1.02;0.70;;;14.80;99.90;;;;;;6076945;23;20029;-73
2022/09/21 07:09:31;;;;;;;1.50;0.73;;;14.80;99.90;;;;;;6080271;23;20426;-73
2022/09/21 07:12:18;;;;;;;1.13;0.70;;;14.80;99.90;;;;;;6077878;23;20029;-73
2022/09/21 07:14:45;;;;;;;0.70;0.60;;;14.90;99.90;;;;;;6079673;23;20026;-73
2022/09/21 07:17:13;;;;;;;0.63;0.55;;;14.90;99.90;;;;;;6078067;23;20109;-73
2022/09/21 07:19:41;;;;;;;0.70;0.70;;;15.00;99.90;;;;;;6077193;23;20031;-73
2022/09/21 07:22:08;;;;;;;0.75;0.55;;;15.00;99.90;;;;;;6078815;23;20369;-74
2022/09/21 07:24:34;;;;;;;0.80;0.70;;;15.10;99.90;;;;;;6053844;23;20053;-73
2022/09/21 07:27:01;;;;;;;0.60;0.55;;;15.10;99.90;;;;;;6079661;23;20037;-73
2022/09/21 07:29:29;;;;;;;0.73;0.60;;;15.20;99.90;;;;;;6079011;23;20026;-73
2022/09/21 07:31:55;;;;;;;0.55;0.50;;;15.20;99.90;;;;;;6080416;23;20022;-73
2022/09/21 07:34:22;;;;;;;0.60;0.55;;;15.30;99.90;;;;;;6081583;23;20032;-74
2022/09/21 07:36:49;;;;;;;0.50;0.50;;;15.30;99.90;;;;;;6080930;23;20093;-73
2022/09/21 07:39:16;;;;;;;0.80;0.70;;;15.30;99.90;;;;;;6081685;23;20468;-73
2022/09/21 07:41:42;;;;;;;0.60;0.52;;;15.40;99.90;;;;;;6055889;23;20101;-73
2022/09/21 07:44:09;;;;;;;0.47;0.47;;;15.40;99.90;;;;;;6080945;23;20029;-73
2022/09/21 07:46:36;;;;;;;0.85;0.70;;;15.40;99.90;;;;;;6080667;23;20650;-72
2022/09/21 07:49:10;;;;;;;1.00;0.70;;;15.50;99.90;;;;;;6081041;23;20034;-73
2022/09/21 07:51:37;;;;;;;0.93;0.60;;;15.60;99.90;;;;;;6079193;23;20022;-73
2022/09/21 07:54:04;;;;;;;0.70;0.70;;;15.70;99.90;;;;;;6079436;23;20037;-73
2022/09/21 07:56:31;;;;;;;0.50;0.50;;;15.70;99.90;;;;;;6080994;23;20057;-73
2022/09/21 07:59:06;;;;;;;0.70;0.60;;;15.80;99.90;;;;;;6082101;23;20030;-73
2022/09/21 08:01:35;;;;;;;0.98;0.68;;;15.80;99.90;;;;;;6078552;23;20077;-73
2022/09/21 08:04:02;;;;;;;1.15;0.90;;;15.90;99.90;;;;;;6079099;23;20030;-73
2022/09/21 08:06:31;;;;;;;1.10;0.95;;;15.90;99.90;;;;;;6079849;23;20546;-72
2022/09/21 08:08:59;;;;;;;1.25;0.80;;;16.00;99.90;;;;;;6079861;23;20026;-73
2022/09/21 08:11:26;;;;;;;0.82;0.70;;;16.00;99.90;;;;;;6079100;23;20255;-73
2022/09/21 08:13:54;;;;;;;0.50;0.50;;;16.00;99.90;;;;;;6079593;23;20095;-73
2022/09/21 08:16:21;;;;;;;1.10;0.70;;;16.00;99.90;;;;;;6078852;23;20387;-72
2022/09/21 08:18:50;;;;;;;1.10;0.70;;;16.10;99.90;;;;;;6079271;23;20050;-73
2022/09/21 08:21:16;;;;;;;0.73;0.60;;;16.20;99.90;;;;;;6078920;23;20023;-72
2022/09/21 08:23:43;;;;;;;0.57;0.50;;;16.20;99.90;;;;;;6080493;23;20030;-73
2022/09/21 08:26:15;;;;;;;1.23;0.82;;;16.30;99.90;;;;;;6079650;23;20022;-73
2022/09/21 08:28:42;;;;;;;1.00;0.80;;;16.40;99.90;;;;;;6079703;23;20026;-73
2022/09/21 08:31:09;;;;;;;1.10;0.75;;;16.40;99.90;;;;;;6079051;23;20026;-72
2022/09/21 08:33:36;;;;;;;1.00;0.73;;;16.50;99.90;;;;;;6079187;23;20696;-73
2022/09/21 08:36:03;;;;;;;0.82;0.68;;;16.50;99.90;;;;;;6054966;23;20029;-72
2022/09/21 08:38:34;;;;;;;0.82;0.55;;;16.60;99.90;;;;;;6055284;23;20026;-73
2022/09/21 08:41:02;;;;;;;1.20;0.70;;;16.60;99.90;;;;;;6080807;23;20030;-73
2022/09/21 08:43:38;;;;;;;1.00;0.73;;;16.70;99.90;;;;;;6078656;23;20030;-73
2022/09/21 08:46:16;;;;;;;1.13;0.80;;;16.80;99.90;;;;;;6079452;23;20034;-73
2022/09/21 08:48:48;;;;;;;0.57;0.50;;;16.80;99.90;;;;;;6079877;23;20033;-72
2022/09/21 08:51:22;;;;;;;0.40;0.40;;;16.90;99.90;;;;;;6078539;23;20030;-73
2022/09/21 08:53:51;;;;;;;0.65;0.40;;;17.00;99.90;;;;;;6079287;23;20449;-72
2022/09/21 08:56:17;;;;;;;0.60;0.55;;;17.10;99.90;;;;;;6079131;23;20048;-73
2022/09/21 08:58:44;;;;;;;0.57;0.47;;;17.10;99.90;;;;;;6055529;23;20456;-73
2022/09/21 09:01:23;;;;;;;0.95;0.65;;;17.20;99.90;;;;;;6078851;23;20415;-72
2022/09/21 09:04:05;;;;;;;1.00;0.50;;;17.20;99.90;;;;;;6078583;23;20250;-72
2022/09/21 09:06:35;;;;;;;0.70;0.50;;;17.30;99.90;;;;;;6077765;23;20474;-73
2022/09/21 09:09:10;;;;;;;0.90;0.60;;;17.40;99.90;;;;;;6080249;23;20035;-73
2022/09/21 09:12:14;;;;;;;0.93;0.60;;;17.40;99.90;;;;;;6079102;23;20343;-73
2022/09/21 09:14:40;;;;;;;0.82;0.60;;;17.40;99.90;;;;;;6052713;23;20033;-75
2022/09/21 09:17:23;;;;;;;0.90;0.65;;;17.40;99.90;;;;;;6079546;23;20334;-73
2022/09/21 09:20:00;;;;;;;0.65;0.60;;;17.50;99.90;;;;;;6080346;23;20109;-73
2022/09/21 09:22:41;;;;;;;0.52;0.50;;;17.60;99.90;;;;;;6078033;23;20031;-73
2022/09/21 09:25:26;;;;;;;0.85;0.50;;;17.60;99.90;;;;;;6079104;23;20030;-73
2022/09/21 09:27:53;;;;;;;0.35;0.35;;;17.70;99.90;;;;;;6078137;23;20101;-72
2022/09/21 09:30:24;;;;;;;1.13;0.77;;;17.70;99.90;;;;;;6078846;23;20170;-73
2022/09/21 09:32:58;;;;;;;0.80;0.60;;;17.80;99.90;;;;;;6078548;23;20447;-73
2022/09/21 09:35:35;;;;;;;1.25;0.80;;;17.90;99.90;;;;;;6077903;23;20467;-73
2022/09/21 09:38:34;;;;;;;0.63;0.60;;;17.90;99.90;;;;;;6077888;23;20026;-73
2022/09/21 09:41:18;;;;;;;0.70;0.60;;;18.00;99.90;;;;;;6082502;23;20173;-73
2022/09/21 09:44:10;;;;;;;0.93;0.65;;;18.10;99.90;;;;;;6079665;23;20400;-73
2022/09/21 09:47:08;;;;;;;1.35;1.08;;;18.20;99.90;;;;;;6078673;23;20036;-73
2022/09/21 09:50:18;;;;;;;1.55;1.10;;;18.20;99.90;;;;;;6062135;23;20033;-73
2022/09/21 09:52:45;;;;;;;1.48;0.80;;;18.30;99.90;;;;;;6070314;23;20023;-73
2022/09/21 09:55:24;;;;;;;1.20;1.00;;;18.40;99.90;;;;;;6078008;23;20040;-73
2022/09/21 09:57:53;;;;;;;1.85;1.08;;;18.40;99.90;;;;;;6054546;23;20405;-73
2022/09/21 10:00:19;;;;;;;1.70;1.20;;;18.50;99.90;;;;;;6078216;23;20257;-73
2022/09/21 10:02:50;;;;;;;1.00;0.90;;;18.50;99.90;;;;;;6055997;23;20093;-73
2022/09/21 10:05:40;;;;;;;0.60;0.60;;;18.60;99.90;;;;;;6082762;23;20030;-72
2022/09/21 10:08:26;;;;;;;1.35;0.88;;;18.70;99.90;;;;;;6082731;23;20096;-73
2022/09/21 10:10:53;;;;;;;0.90;0.73;;;18.80;99.90;;;;;;6083535;23;20029;-73
2022/09/21 10:13:36;;;;;;;0.82;0.63;;;18.80;99.90;;;;;;6059398;23;20388;-73
2022/09/21 10:16:21;;;;;;;;;;;18.90;99.90;;;;;;6086437;23;20026;-73
2022/09/21 10:18:55;;;;;;;0.82;0.65;;;19.00;99.90;;;;;;6085721;23;19960;-73
2022/09/21 10:21:22;;;;;;;0.50;0.50;;;19.10;99.90;;;;;;6088781;23;20036;-73
2022/09/21 10:24:18;;;;;;;1.10;0.60;;;19.20;99.90;;;;;;6065186;23;20029;-74
2022/09/21 10:27:02;;;;;;;1.33;0.75;;;19.30;99.90;;;;;;6099137;23;20327;-75
2022/09/21 10:29:39;;;;;;;0.75;0.60;;;19.30;99.90;;;;;;6092297;23;20021;-74
2022/09/21 10:32:12;;;;;;;0.77;0.57;;;19.40;99.90;;;;;;6112957;23;20711;-74
2022/09/21 10:34:58;;;;;;;0.93;0.57;;;19.40;99.90;;;;;;6087427;23;20057;-74
2022/09/21 10:37:28;;;;;;;0.57;0.50;;;19.50;99.90;;;;;;6089031;23;20040;-74
2022/09/21 10:39:56;;;;;;;0.50;0.50;;;19.60;99.90;;;;;;6067296;23;20026;-74
2022/09/21 10:42:22;;;;;;;0.50;0.50;;;19.70;99.90;;;;;;6091329;23;20100;-74
2022/09/21 10:44:51;;;;;;;0.82;0.60;;;19.80;99.90;;;;;;6117112;23;20382;-74
2022/09/21 10:47:19;;;;;;;0.70;0.50;;;19.90;99.90;;;;;;6066823;23;20030;-74
2022/09/21 10:50:26;;;;;;;0.68;0.60;;;20.00;99.90;;;;;;6091444;23;20022;-75
2022/09/21 10:53:01;;;;;;;0.93;0.50;;;20.00;99.90;;;;;;6088366;23;20014;-75
2022/09/21 10:55:29;;;;;;;0.50;0.40;;;20.00;99.90;;;;;;6091878;23;20024;-75
2022/09/21 10:57:55;;;;;;;0.40;0.38;;;20.10;99.90;;;;;;6091218;23;20435;-74
2022/09/21 11:00:30;;;;;;;0.60;0.45;;;20.10;99.90;;;;;;6091651;23;20025;-72
2022/09/21 11:02:59;;;;;;;0.30;0.30;;;20.20;99.90;;;;;;6115151;23;20026;-72
2022/09/21 11:05:31;;;;;;;0.68;0.50;;;20.30;99.90;;;;;;6090798;23;20026;-71
2022/09/21 11:08:11;;;;;;;0.52;0.52;;;20.30;99.90;;;;;;6090287;23;20022;-72
2022/09/21 11:11:28;;;;;;;0.82;0.40;;;20.40;99.90;;;;;;6092184;23;20045;-72
2022/09/21 11:14:29;;;;;;;0.70;0.40;;;20.50;99.90;;;;;;6025983;23;20527;-72
2022/09/21 11:17:02;;;;;;;0.73;0.50;;;20.60;99.90;;;;;;6035615;23;20023;-72
2022/09/21 11:20:04;;;;;;;0.40;0.40;;;20.70;99.90;;;;;;6090289;23;20280;-72
2022/09/21 11:22:35;;;;;;;0.30;0.30;;;20.70;99.90;;;;;;6088136;23;20100;-74
2022/09/21 11:25:31;;;;;;;0.52;0.38;;;20.80;99.90;;;;;;6086929;23;20028;-74
2022/09/21 11:28:21;;;;;;;0.82;0.50;;;20.90;99.90;;;;;;6086524;23;20022;-74
2022/09/21 11:31:21;;;;;;;0.60;0.50;;;20.90;99.90;;;;;;6088121;23;20460;-74
2022/09/21 11:33:54;;;;;;;0.40;0.30;;;21.10;99.90;;;;;;6090066;23;20026;-75
2022/09/21 11:37:08;;;;;;;0.40;0.38;;;21.20;99.90;;;;;;6090189;23;20360;-72
2022/09/21 11:39:59;;;;;;;0.63;0.40;;;21.40;99.90;;;;;;5998345;23;20055;-75
2022/09/21 11:42:46;;;;;;;0.80;0.50;;;21.50;99.90;;;;;;6116625;23;20026;-73
2022/09/21 11:45:44;;;;;;;0.40;0.40;;;21.60;99.90;;;;;;6091023;23;20677;-73
2022/09/21 11:48:53;;;;;;;0.40;0.40;;;21.90;99.90;;;;;;6066572;23;20018;-72
2022/09/21 11:51:27;;;;;;;0.40;0.40;;;22.00;99.90;;;;;;6089780;23;20385;-73
2022/09/21 11:54:02;;;;;;;0.65;0.45;;;22.10;99.90;;;;;;6088597;23;20473;-73
2022/09/21 11:56:58;;;;;;;0.30;0.30;;;22.30;99.90;;;;;;6115696;23;20036;-72
2022/09/21 11:59:53;;;;;;;0.85;0.60;;;22.60;99.90;;;;;;6091233;23;20018;-72
2022/09/21 12:02:35;;;;;;;0.73;0.60;;;22.60;99.60;;;;;;6088696;23;20485;-73
2022/09/21 12:05:23;;;;;;;0.60;0.60;;;22.70;99.30;;;;;;6115657;23;20044;-72
2022/09/21 12:07:56;;;;;;;0.75;0.50;;;23.00;99.50;;;;;;6114806;23;20029;-72
2022/09/21 12:10:35;;;;;;;0.40;0.40;;;23.10;99.10;;;;;;6090876;23;20388;-73
2022/09/21 12:13:23;;;;;;;0.85;0.60;;;23.30;98.80;;;;;;6116752;23;20040;-73
2022/09/21 12:15:56;;;;;;;0.60;0.60;;;23.40;97.80;;;;;;6090925;23;20092;-73
2022/09/21 12:18:32;;;;;;;;;;;23.60;98.20;;;;;;6117584;23;20048;-73
2022/09/21 12:21:13;;;;;;;1.13;0.80;;;23.90;97.20;;;;;;6117078;23;19956;-72
2022/09/21 12:23:45;;;;;;;0.98;0.55;;;23.80;97.50;;;;;;6090130;23;20036;-73
2022/09/21 12:26:15;;;;;;;0.70;0.53;;;24.10;97.30;;;;;;6087741;23;20022;-73
2022/09/21 12:28:50;;;;;;;0.47;0.38;;;24.30;96.30;;;;;;6088435;23;20032;-73
2022/09/21 12:31:24;;;;;;;0.35;0.35;;;24.50;96.60;;;;;;6089221;23;20109;-73
2022/09/21 12:33:56;;;;;;;0.70;0.60;;;24.80;95.90;;;;;;6068075;23;20036;-72
2022/09/21 12:36:38;;;;;;;0.40;0.40;;;25.10;94.10;;;;;;6092103;23;20041;-73
2022/09/21 12:39:24;;;;;;;0.70;0.60;;;25.50;93.70;;;;;;6092482;23;20419;-73
2022/09/21 12:41:53;;;;;;;0.50;0.50;;;25.80;94.30;;;;;;6092632;23;20101;-73
2022/09/21 12:44:28;;;;;;;0.50;0.50;;;25.80;93.10;;;;;;6092332;23;20125;-72
2022/09/21 12:47:10;;;;;;;0.57;0.50;;;25.80;93.10;;;;;;6089828;23;20105;-73
2022/09/21 12:49:43;;;;;;;0.30;0.30;;;25.70;93.40;;;;;;6112709;23;20022;-73
2022/09/21 12:52:20;;;;;;;0.70;0.45;;;25.70;92.80;;;;;;6084958;23;20145;-73
2022/09/21 12:54:53;;;;;;;0.52;0.50;;;25.80;92.40;;;;;;6089972;23;20401;-73
2022/09/21 12:57:25;;;;;;;0.38;0.38;;;26.10;91.40;;;;;;6088763;23;20026;-73
2022/09/21 13:00:21;;;;;;;0.40;0.40;;;26.40;91.50;;;;;;6092467;23;20533;-73
2022/09/21 13:03:03;;;;;;;0.52;0.50;;;26.50;91.40;;;;;;6086100;23;20140;-73
2022/09/21 13:06:26;;;;;;;0.63;0.60;;;26.90;91.00;;;;;;6091460;23;20116;-73
2022/09/21 13:08:52;;;;;;;0.40;0.40;;;27.20;87.30;;;;;;5999048;23;20024;-73
2022/09/21 13:11:20;;;;;;;0.95;0.60;;;27.60;88.00;;;;;;5975090;23;20038;-74
2022/09/21 13:13:51;;;;;;;0.50;0.50;;;27.90;86.00;;;;;;6008252;23;20160;-74
2022/09/21 13:16:38;;;;;;;0.63;0.60;;;28.30;86.20;;;;;;6091645;23;20098;-73
2022/09/21 13:19:21;;;;;;;0.68;0.68;;;27.90;84.50;;;;;;6091242;23;20033;-73
2022/09/21 13:22:18;;;;;;;0.90;0.80;;;27.90;84.00;;;;;;6089934;23;20025;-74
2022/09/21 13:25:00;;;;;;;0.82;0.68;;;27.80;84.50;;;;;;6113287;23;20037;-74